sensor_id;sensor_type;location;lat;lon;timestamp;temperature;humidity
2391;DHT22;22957;50.824;4.360;2023-04-01T00:00:54;11.20;99.90
2391;DHT22;22957;50.824;4.360;2023-04-01T00:03:20;11.40;99.90
2391;DHT22;22957;50.824;4.360;2023-04-01T00:05:48;11.40;99.90
2391;DHT22;22957;50.824;4.360;2023-04-01T00:08:15;11.30;99.90
2391;DHT22;22957;50.824;4.360;2023-04-01T00:10:41;11.50;99.90
2391;DHT22;22957;50.824;4.360;2023-04-01T00:13:19;11.40;99.90
2391;DHT22;22957;50.824;4.360;2023-04-01T00:15:45;11.40;99.90
2391;DHT22;22957;50.824;4.360;2023-04-01T00:18:11;11.10;99.90
2391;DHT22;22957;50.824;4.360;2023-04-01T00:20:43;11.30;99.90
2391;DHT22;22957;50.824;4.360;2023-04-01T00:23:09;11.60;99.90
2391;DHT22;22957;50.824;4.360;2023-04-01T00:25:35;11.50;99.90
2391;DHT22;22957;50.824;4.360;2023-04-01T00:28:00;11.50;99.90
2391;DHT22;22957;50.824;4.360;2023-04-01T00:30:27;11.40;99.90
2391;DHT22;22957;50.824;4.360;2023-04-01T00:32:54;11.30;99.90
2391;DHT22;22957;50.824;4.360;2023-04-01T00:35:20;11.50;99.90
2391;DHT22;22957;50.824;4.360;2023-04-01T00:37:46;11.60;99.90
2391;DHT22;22957;50.824;4.360;2023-04-01T00:40:32;11.50;99.90
2391;DHT22;22957;50.824;4.360;2023-04-01T00:43:00;11.30;99.90
2391;DHT22;22957;50.824;4.360;2023-04-01T00:48:03;11.20;99.90
2391;DHT22;22957;50.824;4.360;2023-04-01T00:50:30;11.20;99.90
2391;DHT22;22957;50.824;4.360;2023-04-01T00:52:59;11.00;99.90
2391;DHT22;22957;50.824;4.360;2023-04-01T00:55:27;11.40;99.90
2391;DHT22;22957;50.824;4.360;2023-04-01T00:57:58;11.40;99.90
2391;DHT22;22957;50.824;4.360;2023-04-01T01:00:24;11.10;99.90
2391;DHT22;22957;50.824;4.360;2023-04-01T01:02:52;11.20;99.90
2391;DHT22;22957;50.824;4.360;2023-04-01T01:05:26;11.10;99.90
2391;DHT22;22957;50.824;4.360;2023-04-01T01:08:04;11.10;99.90
2391;DHT22;22957;50.824;4.360;2023-04-01T01:10:39;11.30;99.90
2391;DHT22;22957;50.824;4.360;2023-04-01T01:13:14;11.00;99.90
2391;DHT22;22957;50.824;4.360;2023-04-01T01:15:58;11.20;99.90
2391;DHT22;22957;50.824;4.360;2023-04-01T01:18:57;11.40;99.90
2391;DHT22;22957;50.824;4.360;2023-04-01T01:24:44;11.60;99.90
2391;DHT22;22957;50.824;4.360;2023-04-01T01:27:17;11.10;99.90
2391;DHT22;22957;50.824;4.360;2023-04-01T01:35:46;11.50;99.90
2391;DHT22;22957;50.824;4.360;2023-04-01T01:38:17;11.60;99.90
2391;DHT22;22957;50.824;4.360;2023-04-01T01:40:48;11.40;99.90
2391;DHT22;22957;50.824;4.360;2023-04-01T01:43:19;11.40;99.90
2391;DHT22;22957;50.824;4.360;2023-04-01T01:45:49;11.50;99.90
2391;DHT22;22957;50.824;4.360;2023-04-01T01:48:17;11.40;99.90
2391;DHT22;22957;50.824;4.360;2023-04-01T01:50:44;11.40;99.90
2391;DHT22;22957;50.824;4.360;2023-04-01T01:53:12;11.10;99.90
2391;DHT22;22957;50.824;4.360;2023-04-01T01:55:41;11.20;99.90
2391;DHT22;22957;50.824;4.360;2023-04-01T01:58:28;11.10;99.90
2391;DHT22;22957;50.824;4.360;2023-04-01T02:01:04;11.40;99.90
2391;DHT22;22957;50.824;4.360;2023-04-01T02:03:34;11.20;99.90
2391;DHT22;22957;50.824;4.360;2023-04-01T02:06:04;11.00;99.90
2391;DHT22;22957;50.824;4.360;2023-04-01T02:08:47;11.40;99.90
2391;DHT22;22957;50.824;4.360;2023-04-01T02:11:18;11.50;99.90
2391;DHT22;22957;50.824;4.360;2023-04-01T02:13:55;11.80;99.90
2391;DHT22;22957;50.824;4.360;2023-04-01T02:19:36;11.50;99.90
2391;DHT22;22957;50.824;4.360;2023-04-01T02:22:05;11.60;99.90
2391;DHT22;22957;50.824;4.360;2023-04-01T02:24:33;11.90;99.90
2391;DHT22;22957;50.824;4.360;2023-04-01T02:26:59;12.20;99.90
2391;DHT22;22957;50.824;4.360;2023-04-01T02:29:27;11.50;99.90
2391;DHT22;22957;50.824;4.360;2023-04-01T02:31:55;11.80;99.90
2391;DHT22;22957;50.824;4.360;2023-04-01T02:34:23;11.50;99.90
2391;DHT22;22957;50.824;4.360;2023-04-01T02:36:50;11.60;99.90
2391;DHT22;22957;50.824;4.360;2023-04-01T02:39:16;11.60;99.90
2391;DHT22;22957;50.824;4.360;2023-04-01T02:41:45;11.80;99.90
2391;DHT22;22957;50.824;4.360;2023-04-01T02:44:14;11.50;99.90
2391;DHT22;22957;50.824;4.360;2023-04-01T02:46:40;12.00;99.90
2391;DHT22;22957;50.824;4.360;2023-04-01T02:49:05;12.00;99.90
2391;DHT22;22957;50.824;4.360;2023-04-01T02:51:35;11.80;99.90
2391;DHT22;22957;50.824;4.360;2023-04-01T02:54:01;11.70;99.90
2391;DHT22;22957;50.824;4.360;2023-04-01T02:56:27;11.60;99.90
2391;DHT22;22957;50.824;4.360;2023-04-01T02:58:55;11.90;99.90
2391;DHT22;22957;50.824;4.360;2023-04-01T03:01:21;11.70;99.90
2391;DHT22;22957;50.824;4.360;2023-04-01T03:03:47;11.70;99.90
2391;DHT22;22957;50.824;4.360;2023-04-01T03:06:15;11.60;99.90
2391;DHT22;22957;50.824;4.360;2023-04-01T03:08:41;11.40;99.90
2391;DHT22;22957;50.824;4.360;2023-04-01T03:11:12;11.50;99.90
2391;DHT22;22957;50.824;4.360;2023-04-01T03:13:37;11.80;99.90
2391;DHT22;22957;50.824;4.360;2023-04-01T03:16:04;11.60;99.90
2391;DHT22;22957;50.824;4.360;2023-04-01T03:18:30;11.30;99.90
2391;DHT22;22957;50.824;4.360;2023-04-01T03:20:56;11.60;99.90
2391;DHT22;22957;50.824;4.360;2023-04-01T03:23:22;11.60;99.90
2391;DHT22;22957;50.824;4.360;2023-04-01T03:25:49;11.50;99.90
2391;DHT22;22957;50.824;4.360;2023-04-01T03:28:16;11.30;99.90
2391;DHT22;22957;50.824;4.360;2023-04-01T03:30:42;11.90;99.90
2391;DHT22;22957;50.824;4.360;2023-04-01T03:33:07;11.50;99.90
2391;DHT22;22957;50.824;4.360;2023-04-01T03:35:35;11.40;99.90
2391;DHT22;22957;50.824;4.360;2023-04-01T03:38:03;11.50;99.90
2391;DHT22;22957;50.824;4.360;2023-04-01T03:40:29;11.90;99.90
2391;DHT22;22957;50.824;4.360;2023-04-01T03:43:01;11.70;99.90
2391;DHT22;22957;50.824;4.360;2023-04-01T03:45:26;11.50;99.90
2391;DHT22;22957;50.824;4.360;2023-04-01T03:47:54;11.50;99.90
2391;DHT22;22957;50.824;4.360;2023-04-01T03:50:21;11.50;99.90
2391;DHT22;22957;50.824;4.360;2023-04-01T03:52:49;11.40;99.90
2391;DHT22;22957;50.824;4.360;2023-04-01T03:55:15;11.10;99.90
2391;DHT22;22957;50.824;4.360;2023-04-01T03:57:41;11.50;99.90
2391;DHT22;22957;50.824;4.360;2023-04-01T04:00:07;11.60;99.90
2391;DHT22;22957;50.824;4.360;2023-04-01T04:02:34;11.60;99.90
2391;DHT22;22957;50.824;4.360;2023-04-01T04:05:01;11.50;99.90
2391;DHT22;22957;50.824;4.360;2023-04-01T04:07:26;11.70;99.90
2391;DHT22;22957;50.824;4.360;2023-04-01T04:09:52;11.60;99.90
2391;DHT22;22957;50.824;4.360;2023-04-01T04:12:17;11.80;99.90
2391;DHT22;22957;50.824;4.360;2023-04-01T04:14:43;11.60;99.90
2391;DHT22;22957;50.824;4.360;2023-04-01T04:17:12;11.60;99.90
2391;DHT22;22957;50.824;4.360;2023-04-01T04:19:43;11.70;99.90
2391;DHT22;22957;50.824;4.360;2023-04-01T04:22:10;11.50;99.90
2391;DHT22;22957;50.824;4.360;2023-04-01T04:24:36;11.80;99.90
2391;DHT22;22957;50.824;4.360;2023-04-01T04:27:02;12.10;99.90
2391;DHT22;22957;50.824;4.360;2023-04-01T04:29:28;11.90;99.90
2391;DHT22;22957;50.824;4.360;2023-04-01T04:31:54;11.50;99.90
2391;DHT22;22957;50.824;4.360;2023-04-01T04:34:20;11.50;99.90
2391;DHT22;22957;50.824;4.360;2023-04-01T04:36:48;11.50;99.90
2391;DHT22;22957;50.824;4.360;2023-04-01T04:39:15;11.70;99.90
2391;DHT22;22957;50.824;4.360;2023-04-01T04:41:42;11.50;99.90
2391;DHT22;22957;50.824;4.360;2023-04-01T04:44:08;11.50;99.90
2391;DHT22;22957;50.824;4.360;2023-04-01T04:46:35;11.40;99.90
2391;DHT22;22957;50.824;4.360;2023-04-01T04:49:02;11.50;99.90
2391;DHT22;22957;50.824;4.360;2023-04-01T04:51:28;11.10;99.90
2391;DHT22;22957;50.824;4.360;2023-04-01T04:53:54;11.40;99.90
2391;DHT22;22957;50.824;4.360;2023-04-01T04:56:21;11.50;99.90
2391;DHT22;22957;50.824;4.360;2023-04-01T04:58:48;11.50;99.90
2391;DHT22;22957;50.824;4.360;2023-04-01T05:01:15;11.50;99.90
2391;DHT22;22957;50.824;4.360;2023-04-01T05:03:42;11.40;99.90
2391;DHT22;22957;50.824;4.360;2023-04-01T05:06:09;11.60;99.90
2391;DHT22;22957;50.824;4.360;2023-04-01T05:08:35;11.70;99.90
2391;DHT22;22957;50.824;4.360;2023-04-01T05:11:02;11.30;99.90
2391;DHT22;22957;50.824;4.360;2023-04-01T05:13:29;11.50;99.90
2391;DHT22;22957;50.824;4.360;2023-04-01T05:15:58;11.50;99.90
2391;DHT22;22957;50.824;4.360;2023-04-01T05:18:23;11.40;99.90
2391;DHT22;22957;50.824;4.360;2023-04-01T05:20:53;11.80;99.90
2391;DHT22;22957;50.824;4.360;2023-04-01T05:23:20;11.50;99.90
2391;DHT22;22957;50.824;4.360;2023-04-01T05:25:48;11.70;99.90
2391;DHT22;22957;50.824;4.360;2023-04-01T05:28:16;11.80;99.90
2391;DHT22;22957;50.824;4.360;2023-04-01T05:31:05;12.20;99.90
2391;DHT22;22957;50.824;4.360;2023-04-01T05:33:32;12.00;99.90
2391;DHT22;22957;50.824;4.360;2023-04-01T05:36:11;11.60;99.90
2391;DHT22;22957;50.824;4.360;2023-04-01T05:38:37;11.60;99.90
2391;DHT22;22957;50.824;4.360;2023-04-01T05:41:02;11.70;99.90
2391;DHT22;22957;50.824;4.360;2023-04-01T05:43:28;11.50;99.90
2391;DHT22;22957;50.824;4.360;2023-04-01T05:45:56;11.80;99.90
2391;DHT22;22957;50.824;4.360;2023-04-01T05:48:25;11.10;99.90
2391;DHT22;22957;50.824;4.360;2023-04-01T05:50:50;11.40;99.90
2391;DHT22;22957;50.824;4.360;2023-04-01T05:53:16;11.50;99.90
2391;DHT22;22957;50.824;4.360;2023-04-01T05:55:43;11.40;99.90
2391;DHT22;22957;50.824;4.360;2023-04-01T05:58:08;12.10;99.90
2391;DHT22;22957;50.824;4.360;2023-04-01T06:00:36;11.50;99.90
2391;DHT22;22957;50.824;4.360;2023-04-01T06:03:03;11.60;99.90
2391;DHT22;22957;50.824;4.360;2023-04-01T06:05:40;11.70;99.90
2391;DHT22;22957;50.824;4.360;2023-04-01T06:08:17;11.50;99.90
2391;DHT22;22957;50.824;4.360;2023-04-01T06:20:12;11.50;99.90
2391;DHT22;22957;50.824;4.360;2023-04-01T06:23:10;11.50;99.90
2391;DHT22;22957;50.824;4.360;2023-04-01T06:25:46;11.40;99.90
2391;DHT22;22957;50.824;4.360;2023-04-01T06:40:44;11.60;99.90
2391;DHT22;22957;50.824;4.360;2023-04-01T06:43:37;11.70;99.90
2391;DHT22;22957;50.824;4.360;2023-04-01T06:46:27;11.40;99.90
2391;DHT22;22957;50.824;4.360;2023-04-01T06:49:35;11.30;99.90
2391;DHT22;22957;50.824;4.360;2023-04-01T06:54:58;11.40;99.90
2391;DHT22;22957;50.824;4.360;2023-04-01T06:57:31;11.60;99.90
2391;DHT22;22957;50.824;4.360;2023-04-01T07:00:03;11.60;99.90
2391;DHT22;22957;50.824;4.360;2023-04-01T07:02:37;11.80;99.90
2391;DHT22;22957;50.824;4.360;2023-04-01T07:05:05;11.50;99.90
2391;DHT22;22957;50.824;4.360;2023-04-01T07:07:41;11.60;99.90
2391;DHT22;22957;50.824;4.360;2023-04-01T07:10:18;11.90;99.90
2391;DHT22;22957;50.824;4.360;2023-04-01T07:12:56;11.60;99.90
2391;DHT22;22957;50.824;4.360;2023-04-01T07:18:15;11.90;99.90
2391;DHT22;22957;50.824;4.360;2023-04-01T07:21:01;11.60;99.90
2391;DHT22;22957;50.824;4.360;2023-04-01T07:23:39;11.90;99.90
2391;DHT22;22957;50.824;4.360;2023-04-01T07:26:26;11.70;99.90
2391;DHT22;22957;50.824;4.360;2023-04-01T07:28:53;12.00;99.90
2391;DHT22;22957;50.824;4.360;2023-04-01T07:31:30;12.00;99.90
2391;DHT22;22957;50.824;4.360;2023-04-01T07:34:23;12.00;99.90
2391;DHT22;22957;50.824;4.360;2023-04-01T07:45:34;11.60;99.90
2391;DHT22;22957;50.824;4.360;2023-04-01T07:48:24;11.90;99.90
2391;DHT22;22957;50.824;4.360;2023-04-01T07:51:02;12.20;99.90
2391;DHT22;22957;50.824;4.360;2023-04-01T07:53:56;12.30;99.90
2391;DHT22;22957;50.824;4.360;2023-04-01T07:56:52;12.40;99.90
2391;DHT22;22957;50.824;4.360;2023-04-01T08:05:34;12.60;99.90
2391;DHT22;22957;50.824;4.360;2023-04-01T08:08:24;12.40;99.90
2391;DHT22;22957;50.824;4.360;2023-04-01T08:14:08;12.20;99.90
2391;DHT22;22957;50.824;4.360;2023-04-01T08:22:11;12.30;99.90
2391;DHT22;22957;50.824;4.360;2023-04-01T08:24:45;12.20;99.90
2391;DHT22;22957;50.824;4.360;2023-04-01T08:30:25;12.10;99.90
2391;DHT22;22957;50.824;4.360;2023-04-01T08:33:05;12.40;99.90
2391;DHT22;22957;50.824;4.360;2023-04-01T08:35:54;12.30;99.90
2391;DHT22;22957;50.824;4.360;2023-04-01T08:38:31;12.30;99.90
2391;DHT22;22957;50.824;4.360;2023-04-01T08:44:34;12.70;99.90
2391;DHT22;22957;50.824;4.360;2023-04-01T08:55:46;12.50;99.90
2391;DHT22;22957;50.824;4.360;2023-04-01T09:10:19;12.90;99.90
2391;DHT22;22957;50.824;4.360;2023-04-01T09:15:43;12.10;99.90
2391;DHT22;22957;50.824;4.360;2023-04-01T09:21:17;12.50;99.90
2391;DHT22;22957;50.824;4.360;2023-04-01T09:33:36;13.20;99.90
2391;DHT22;22957;50.824;4.360;2023-04-01T09:39:10;12.90;99.90
2391;DHT22;22957;50.824;4.360;2023-04-01T09:44:59;13.10;99.90
2391;DHT22;22957;50.824;4.360;2023-04-01T09:47:37;13.40;99.90
2391;DHT22;22957;50.824;4.360;2023-04-01T09:53:36;13.50;99.90
2391;DHT22;22957;50.824;4.360;2023-04-01T09:59:24;13.20;99.90
2391;DHT22;22957;50.824;4.360;2023-04-01T10:08:20;14.00;99.90
2391;DHT22;22957;50.824;4.360;2023-04-01T10:19:49;13.50;99.90
2391;DHT22;22957;50.824;4.360;2023-04-01T10:25:23;13.20;99.90
2391;DHT22;22957;50.824;4.360;2023-04-01T10:33:24;14.10;99.90
2391;DHT22;22957;50.824;4.360;2023-04-01T10:45:16;13.30;99.90
2391;DHT22;22957;50.824;4.360;2023-04-01T11:08:04;14.30;99.90
2391;DHT22;22957;50.824;4.360;2023-04-01T11:19:49;14.10;99.90
2391;DHT22;22957;50.824;4.360;2023-04-01T11:22:53;14.00;99.90
2391;DHT22;22957;50.824;4.360;2023-04-01T11:25:50;13.70;99.90
2391;DHT22;22957;50.824;4.360;2023-04-01T11:28:22;13.80;99.90
2391;DHT22;22957;50.824;4.360;2023-04-01T11:31:19;13.90;99.90
2391;DHT22;22957;50.824;4.360;2023-04-01T11:51:34;13.90;99.90
2391;DHT22;22957;50.824;4.360;2023-04-01T11:54:12;14.40;99.90
2391;DHT22;22957;50.824;4.360;2023-04-01T11:59:45;13.80;99.90
2391;DHT22;22957;50.824;4.360;2023-04-01T12:02:25;14.10;99.90
2391;DHT22;22957;50.824;4.360;2023-04-01T12:08:07;13.60;99.90
2391;DHT22;22957;50.824;4.360;2023-04-01T12:13:42;13.40;99.90
2391;DHT22;22957;50.824;4.360;2023-04-01T12:23:03;13.90;99.90
2391;DHT22;22957;50.824;4.360;2023-04-01T12:25:59;13.70;99.90
2391;DHT22;22957;50.824;4.360;2023-04-01T12:29:40;13.70;99.90
2391;DHT22;22957;50.824;4.360;2023-04-01T12:37:20;13.60;99.90
2391;DHT22;22957;50.824;4.360;2023-04-01T12:42:51;13.20;99.90
2391;DHT22;22957;50.824;4.360;2023-04-01T12:45:42;13.40;99.90
2391;DHT22;22957;50.824;4.360;2023-04-01T12:54:24;13.80;99.90
2391;DHT22;22957;50.824;4.360;2023-04-01T12:57:10;13.60;99.90
2391;DHT22;22957;50.824;4.360;2023-04-01T13:09:36;13.20;99.90
2391;DHT22;22957;50.824;4.360;2023-04-01T13:12:29;12.70;99.90
2391;DHT22;22957;50.824;4.360;2023-04-01T13:15:26;13.20;99.90
2391;DHT22;22957;50.824;4.360;2023-04-01T13:21:33;13.00;99.90
2391;DHT22;22957;50.824;4.360;2023-04-01T13:29:36;13.20;99.90
2391;DHT22;22957;50.824;4.360;2023-04-01T13:32:21;13.20;99.90
2391;DHT22;22957;50.824;4.360;2023-04-01T13:37:59;13.30;99.90
2391;DHT22;22957;50.824;4.360;2023-04-01T13:43:34;13.40;99.90
2391;DHT22;22957;50.824;4.360;2023-04-01T13:55:27;13.10;99.90
2391;DHT22;22957;50.824;4.360;2023-04-01T13:58:21;12.80;99.90
2391;DHT22;22957;50.824;4.360;2023-04-01T14:01:06;13.20;99.90
2391;DHT22;22957;50.824;4.360;2023-04-01T14:06:57;13.10;99.90
2391;DHT22;22957;50.824;4.360;2023-04-01T14:12:48;13.30;99.90
2391;DHT22;22957;50.824;4.360;2023-04-01T14:15:39;13.40;99.90
2391;DHT22;22957;50.824;4.360;2023-04-01T14:21:23;13.20;99.90
2391;DHT22;22957;50.824;4.360;2023-04-01T14:33:11;13.40;99.90
2391;DHT22;22957;50.824;4.360;2023-04-01T14:36:13;13.40;99.90
2391;DHT22;22957;50.824;4.360;2023-04-01T14:38:54;13.30;99.90
2391;DHT22;22957;50.824;4.360;2023-04-01T14:47:34;13.20;99.90
2391;DHT22;22957;50.824;4.360;2023-04-01T14:50:19;13.70;99.90
2391;DHT22;22957;50.824;4.360;2023-04-01T14:55:55;13.40;99.90
2391;DHT22;22957;50.824;4.360;2023-04-01T14:58:24;13.30;99.90
2391;DHT22;22957;50.824;4.360;2023-04-01T15:03:32;13.20;99.90
2391;DHT22;22957;50.824;4.360;2023-04-01T15:11:42;12.70;99.90
2391;DHT22;22957;50.824;4.360;2023-04-01T15:14:46;12.80;99.90
2391;DHT22;22957;50.824;4.360;2023-04-01T15:20:25;12.90;99.90
2391;DHT22;22957;50.824;4.360;2023-04-01T15:28:28;12.30;99.90
2391;DHT22;22957;50.824;4.360;2023-04-01T15:31:19;12.80;99.90
2391;DHT22;22957;50.824;4.360;2023-04-01T15:47:00;13.10;99.90
2391;DHT22;22957;50.824;4.360;2023-04-01T15:49:44;12.60;99.90
2391;DHT22;22957;50.824;4.360;2023-04-01T15:52:41;12.90;99.90
2391;DHT22;22957;50.824;4.360;2023-04-01T15:58:06;12.80;99.90
2391;DHT22;22957;50.824;4.360;2023-04-01T16:01:07;12.50;99.90
2391;DHT22;22957;50.824;4.360;2023-04-01T16:09:17;12.80;99.90
2391;DHT22;22957;50.824;4.360;2023-04-01T16:14:52;12.70;99.90
2391;DHT22;22957;50.824;4.360;2023-04-01T16:17:39;12.30;99.90
2391;DHT22;22957;50.824;4.360;2023-04-01T16:22:57;12.70;99.90
2391;DHT22;22957;50.824;4.360;2023-04-01T16:25:39;12.00;99.90
2391;DHT22;22957;50.824;4.360;2023-04-01T16:28:23;12.00;99.90
2391;DHT22;22957;50.824;4.360;2023-04-01T16:31:25;12.20;99.90
2391;DHT22;22957;50.824;4.360;2023-04-01T16:40:40;12.00;99.90
2391;DHT22;22957;50.824;4.360;2023-04-01T16:43:19;11.80;99.90
2391;DHT22;22957;50.824;4.360;2023-04-01T16:48:58;12.00;99.90
2391;DHT22;22957;50.824;4.360;2023-04-01T16:54:53;12.10;99.90
2391;DHT22;22957;50.824;4.360;2023-04-01T16:57:35;11.80;99.90
2391;DHT22;22957;50.824;4.360;2023-04-01T17:02:52;12.10;99.90
2391;DHT22;22957;50.824;4.360;2023-04-01T17:05:46;12.20;99.90
2391;DHT22;22957;50.824;4.360;2023-04-01T17:11:19;11.60;99.90
2391;DHT22;22957;50.824;4.360;2023-04-01T17:14:03;11.90;99.90
2391;DHT22;22957;50.824;4.360;2023-04-01T17:24:51;12.20;99.90
2391;DHT22;22957;50.824;4.360;2023-04-01T17:30:13;11.80;99.90
2391;DHT22;22957;50.824;4.360;2023-04-01T17:35:48;12.40;99.90
2391;DHT22;22957;50.824;4.360;2023-04-01T17:41:26;12.50;99.90
2391;DHT22;22957;50.824;4.360;2023-04-01T17:47:22;12.30;99.90
2391;DHT22;22957;50.824;4.360;2023-04-01T17:50:28;12.50;99.90
2391;DHT22;22957;50.824;4.360;2023-04-01T17:53:11;12.60;99.90
2391;DHT22;22957;50.824;4.360;2023-04-01T17:55:52;12.40;99.90
2391;DHT22;22957;50.824;4.360;2023-04-01T18:01:24;12.40;99.90
2391;DHT22;22957;50.824;4.360;2023-04-01T18:04:17;11.90;99.90
2391;DHT22;22957;50.824;4.360;2023-04-01T18:15:05;12.00;99.90
2391;DHT22;22957;50.824;4.360;2023-04-01T18:18:10;11.80;99.90
2391;DHT22;22957;50.824;4.360;2023-04-01T18:23:55;12.30;99.90
2391;DHT22;22957;50.824;4.360;2023-04-01T18:26:36;12.10;99.90
2391;DHT22;22957;50.824;4.360;2023-04-01T18:29:28;11.90;99.90
2391;DHT22;22957;50.824;4.360;2023-04-01T18:32:16;12.00;99.90
2391;DHT22;22957;50.824;4.360;2023-04-01T18:35:27;12.00;99.90
2391;DHT22;22957;50.824;4.360;2023-04-01T18:38:18;12.30;99.90
2391;DHT22;22957;50.824;4.360;2023-04-01T18:41:14;12.30;99.90
2391;DHT22;22957;50.824;4.360;2023-04-01T18:47:07;12.30;99.90
2391;DHT22;22957;50.824;4.360;2023-04-01T18:52:36;12.00;99.90
2391;DHT22;22957;50.824;4.360;2023-04-01T18:58:10;12.50;99.90
2391;DHT22;22957;50.824;4.360;2023-04-01T19:06:48;12.10;99.90
2391;DHT22;22957;50.824;4.360;2023-04-01T19:09:26;12.00;99.90
2391;DHT22;22957;50.824;4.360;2023-04-01T19:11:56;12.20;99.90
2391;DHT22;22957;50.824;4.360;2023-04-01T19:20:32;12.10;99.90
2391;DHT22;22957;50.824;4.360;2023-04-01T19:25:52;12.10;99.90
2391;DHT22;22957;50.824;4.360;2023-04-01T19:31:20;11.90;99.90
2391;DHT22;22957;50.824;4.360;2023-04-01T19:34:21;12.00;99.90
2391;DHT22;22957;50.824;4.360;2023-04-01T19:36:59;12.10;99.90
2391;DHT22;22957;50.824;4.360;2023-04-01T19:56:21;12.20;99.90
2391;DHT22;22957;50.824;4.360;2023-04-01T19:59:09;12.30;99.90
2391;DHT22;22957;50.824;4.360;2023-04-01T20:01:56;12.20;99.90
2391;DHT22;22957;50.824;4.360;2023-04-01T20:15:44;12.00;99.90
2391;DHT22;22957;50.824;4.360;2023-04-01T20:26:47;12.10;99.90
2391;DHT22;22957;50.824;4.360;2023-04-01T20:32:49;12.10;99.90
2391;DHT22;22957;50.824;4.360;2023-04-01T20:38:13;12.40;99.90
2391;DHT22;22957;50.824;4.360;2023-04-01T20:41:14;12.00;99.90
2391;DHT22;22957;50.824;4.360;2023-04-01T20:44:10;11.70;99.90
2391;DHT22;22957;50.824;4.360;2023-04-01T20:46:54;11.90;99.90
2391;DHT22;22957;50.824;4.360;2023-04-01T20:49:32;11.80;99.90
2391;DHT22;22957;50.824;4.360;2023-04-01T20:52:17;11.90;99.90
2391;DHT22;22957;50.824;4.360;2023-04-01T20:58:08;12.10;99.90
2391;DHT22;22957;50.824;4.360;2023-04-01T21:03:31;12.30;99.90
2391;DHT22;22957;50.824;4.360;2023-04-01T21:06:17;12.20;99.90
2391;DHT22;22957;50.824;4.360;2023-04-01T21:14:42;12.40;99.90
2391;DHT22;22957;50.824;4.360;2023-04-01T21:23:46;12.30;99.90
2391;DHT22;22957;50.824;4.360;2023-04-01T21:29:18;12.20;99.90
2391;DHT22;22957;50.824;4.360;2023-04-01T21:34:40;12.30;99.90
2391;DHT22;22957;50.824;4.360;2023-04-01T21:42:51;12.20;99.90
2391;DHT22;22957;50.824;4.360;2023-04-01T21:45:27;12.20;99.90
2391;DHT22;22957;50.824;4.360;2023-04-01T21:51:08;12.50;99.90
2391;DHT22;22957;50.824;4.360;2023-04-01T22:05:50;11.80;99.90
2391;DHT22;22957;50.824;4.360;2023-04-01T22:10:54;12.20;99.90
2391;DHT22;22957;50.824;4.360;2023-04-01T22:13:35;12.60;99.90
2391;DHT22;22957;50.824;4.360;2023-04-01T22:16:36;13.00;99.90
2391;DHT22;22957;50.824;4.360;2023-04-01T22:19:35;12.90;99.90
2391;DHT22;22957;50.824;4.360;2023-04-01T22:25:11;12.40;99.90
2391;DHT22;22957;50.824;4.360;2023-04-01T22:30:29;12.40;99.90
2391;DHT22;22957;50.824;4.360;2023-04-01T22:33:11;12.50;99.90
2391;DHT22;22957;50.824;4.360;2023-04-01T22:38:53;13.00;99.90
2391;DHT22;22957;50.824;4.360;2023-04-01T22:43:57;12.40;99.90
2391;DHT22;22957;50.824;4.360;2023-04-01T22:49:59;12.00;99.90
2391;DHT22;22957;50.824;4.360;2023-04-01T22:52:35;11.50;99.90
2391;DHT22;22957;50.824;4.360;2023-04-01T22:55:40;12.00;99.90
2391;DHT22;22957;50.824;4.360;2023-04-01T22:58:14;12.00;99.90
2391;DHT22;22957;50.824;4.360;2023-04-01T23:00:45;12.20;99.90
2391;DHT22;22957;50.824;4.360;2023-04-01T23:03:40;11.80;99.90
2391;DHT22;22957;50.824;4.360;2023-04-01T23:06:06;11.90;99.90
2391;DHT22;22957;50.824;4.360;2023-04-01T23:11:06;12.30;99.90
2391;DHT22;22957;50.824;4.360;2023-04-01T23:13:53;12.00;99.90
2391;DHT22;22957;50.824;4.360;2023-04-01T23:16:29;12.40;99.90
2391;DHT22;22957;50.824;4.360;2023-04-01T23:19:26;12.00;99.90
2391;DHT22;22957;50.824;4.360;2023-04-01T23:24:52;11.50;99.90
2391;DHT22;22957;50.824;4.360;2023-04-01T23:27:24;11.80;99.90
2391;DHT22;22957;50.824;4.360;2023-04-01T23:29:55;11.80;99.90
2391;DHT22;22957;50.824;4.360;2023-04-01T23:32:25;10.50;99.90
2391;DHT22;22957;50.824;4.360;2023-04-01T23:34:56;10.40;99.90
2391;DHT22;22957;50.824;4.360;2023-04-01T23:37:23;11.00;99.90
2391;DHT22;22957;50.824;4.360;2023-04-01T23:39:54;11.90;99.90
2391;DHT22;22957;50.824;4.360;2023-04-01T23:42:28;11.10;99.90
2391;DHT22;22957;50.824;4.360;2023-04-01T23:45:02;11.50;99.90
2391;DHT22;22957;50.824;4.360;2023-04-01T23:47:37;11.40;99.90
2391;DHT22;22957;50.824;4.360;2023-04-01T23:50:14;12.10;99.90
2391;DHT22;22957;50.824;4.360;2023-04-01T23:52:52;11.50;99.90
2391;DHT22;22957;50.824;4.360;2023-04-01T23:55:30;11.90;99.90
